sensor_id;sensor_type;location;lat;lon;timestamp;P1;durP1;ratioP1;P2;durP2;ratioP2
19149;SDS011;9707;49.158;8.632;2024-02-16T00:00:43;7.32;;;2.88;;
19149;SDS011;9707;49.158;8.632;2024-02-16T00:03:09;5.95;;;3.65;;
19149;SDS011;9707;49.158;8.632;2024-02-16T00:05:34;4.45;;;3.00;;
19149;SDS011;9707;49.158;8.632;2024-02-16T00:08:00;5.35;;;3.30;;
19149;SDS011;9707;49.158;8.632;2024-02-16T00:10:27;5.57;;;3.35;;
19149;SDS011;9707;49.158;8.632;2024-02-16T00:12:53;5.80;;;3.65;;
19149;SDS011;9707;49.158;8.632;2024-02-16T00:15:18;7.45;;;3.95;;
19149;SDS011;9707;49.158;8.632;2024-02-16T00:17:43;3.28;;;2.13;;
19149;SDS011;9707;49.158;8.632;2024-02-16T00:20:09;3.15;;;2.33;;
19149;SDS011;9707;49.158;8.632;2024-02-16T00:22:37;6.78;;;3.88;;
19149;SDS011;9707;49.158;8.632;2024-02-16T00:25:02;6.80;;;3.55;;
19149;SDS011;9707;49.158;8.632;2024-02-16T00:27:28;5.10;;;3.42;;
19149;SDS011;9707;49.158;8.632;2024-02-16T00:29:54;4.65;;;3.42;;
19149;SDS011;9707;49.158;8.632;2024-02-16T00:32:19;6.32;;;2.85;;
19149;SDS011;9707;49.158;8.632;2024-02-16T00:34:44;8.20;;;3.50;;
19149;SDS011;9707;49.158;8.632;2024-02-16T00:37:10;6.57;;;3.70;;
19149;SDS011;9707;49.158;8.632;2024-02-16T00:39:37;4.22;;;2.83;;
19149;SDS011;9707;49.158;8.632;2024-02-16T00:42:05;6.30;;;3.00;;
19149;SDS011;9707;49.158;8.632;2024-02-16T00:44:30;4.90;;;3.00;;
19149;SDS011;9707;49.158;8.632;2024-02-16T00:46:56;6.43;;;3.45;;
19149;SDS011;9707;49.158;8.632;2024-02-16T00:49:21;4.82;;;2.75;;
19149;SDS011;9707;49.158;8.632;2024-02-16T00:51:47;6.07;;;3.60;;
19149;SDS011;9707;49.158;8.632;2024-02-16T00:54:12;5.50;;;3.38;;
19149;SDS011;9707;49.158;8.632;2024-02-16T00:56:37;4.60;;;3.10;;
19149;SDS011;9707;49.158;8.632;2024-02-16T00:59:03;4.35;;;2.75;;
19149;SDS011;9707;49.158;8.632;2024-02-16T01:01:29;4.32;;;2.58;;
19149;SDS011;9707;49.158;8.632;2024-02-16T01:03:54;5.22;;;2.67;;
19149;SDS011;9707;49.158;8.632;2024-02-16T01:06:19;3.72;;;2.47;;
19149;SDS011;9707;49.158;8.632;2024-02-16T01:08:45;3.72;;;2.22;;
19149;SDS011;9707;49.158;8.632;2024-02-16T01:11:11;2.00;;;1.70;;
19149;SDS011;9707;49.158;8.632;2024-02-16T01:13:37;4.68;;;2.80;;
19149;SDS011;9707;49.158;8.632;2024-02-16T01:16:04;6.28;;;3.10;;
19149;SDS011;9707;49.158;8.632;2024-02-16T01:18:29;4.03;;;2.90;;
19149;SDS011;9707;49.158;8.632;2024-02-16T01:20:55;5.20;;;2.95;;
19149;SDS011;9707;49.158;8.632;2024-02-16T01:23:20;6.47;;;2.75;;
19149;SDS011;9707;49.158;8.632;2024-02-16T01:25:46;6.20;;;2.58;;
19149;SDS011;9707;49.158;8.632;2024-02-16T01:28:12;5.30;;;2.47;;
19149;SDS011;9707;49.158;8.632;2024-02-16T01:30:37;4.07;;;1.77;;
19149;SDS011;9707;49.158;8.632;2024-02-16T01:33:03;4.35;;;2.08;;
19149;SDS011;9707;49.158;8.632;2024-02-16T01:35:30;5.20;;;2.78;;
19149;SDS011;9707;49.158;8.632;2024-02-16T01:37:55;5.90;;;2.67;;
19149;SDS011;9707;49.158;8.632;2024-02-16T01:40:20;3.55;;;1.98;;
19149;SDS011;9707;49.158;8.632;2024-02-16T01:42:49;8.27;;;2.95;;
19149;SDS011;9707;49.158;8.632;2024-02-16T01:45:14;5.00;;;2.45;;
19149;SDS011;9707;49.158;8.632;2024-02-16T01:47:41;4.82;;;3.00;;
19149;SDS011;9707;49.158;8.632;2024-02-16T01:50:08;4.30;;;2.85;;
19149;SDS011;9707;49.158;8.632;2024-02-16T01:52:34;4.30;;;2.58;;
19149;SDS011;9707;49.158;8.632;2024-02-16T01:55:01;4.82;;;2.85;;
19149;SDS011;9707;49.158;8.632;2024-02-16T01:57:30;4.75;;;2.95;;
19149;SDS011;9707;49.158;8.632;2024-02-16T01:59:56;4.72;;;3.17;;
19149;SDS011;9707;49.158;8.632;2024-02-16T02:02:21;4.03;;;2.70;;
19149;SDS011;9707;49.158;8.632;2024-02-16T02:04:47;4.50;;;3.10;;
19149;SDS011;9707;49.158;8.632;2024-02-16T02:07:13;6.43;;;3.08;;
19149;SDS011;9707;49.158;8.632;2024-02-16T02:09:39;6.38;;;3.22;;
19149;SDS011;9707;49.158;8.632;2024-02-16T02:12:04;7.10;;;3.20;;
19149;SDS011;9707;49.158;8.632;2024-02-16T02:14:29;6.00;;;3.15;;
19149;SDS011;9707;49.158;8.632;2024-02-16T02:16:55;4.35;;;2.97;;
19149;SDS011;9707;49.158;8.632;2024-02-16T02:19:20;4.32;;;2.95;;
19149;SDS011;9707;49.158;8.632;2024-02-16T02:21:45;5.72;;;2.90;;
19149;SDS011;9707;49.158;8.632;2024-02-16T02:24:10;6.07;;;3.22;;
19149;SDS011;9707;49.158;8.632;2024-02-16T02:26:36;5.07;;;2.22;;
19149;SDS011;9707;49.158;8.632;2024-02-16T02:29:01;5.70;;;2.72;;
19149;SDS011;9707;49.158;8.632;2024-02-16T02:31:26;4.22;;;3.40;;
19149;SDS011;9707;49.158;8.632;2024-02-16T02:33:51;4.97;;;2.17;;
19149;SDS011;9707;49.158;8.632;2024-02-16T02:36:17;4.80;;;2.88;;
19149;SDS011;9707;49.158;8.632;2024-02-16T02:38:42;2.72;;;1.90;;
19149;SDS011;9707;49.158;8.632;2024-02-16T02:41:09;5.88;;;3.50;;
19149;SDS011;9707;49.158;8.632;2024-02-16T02:43:34;5.65;;;2.70;;
19149;SDS011;9707;49.158;8.632;2024-02-16T02:45:59;6.20;;;3.30;;
19149;SDS011;9707;49.158;8.632;2024-02-16T02:48:25;4.40;;;2.15;;
19149;SDS011;9707;49.158;8.632;2024-02-16T02:50:50;6.90;;;3.50;;
19149;SDS011;9707;49.158;8.632;2024-02-16T02:53:15;4.15;;;1.85;;
19149;SDS011;9707;49.158;8.632;2024-02-16T02:55:41;7.88;;;3.30;;
19149;SDS011;9707;49.158;8.632;2024-02-16T02:58:06;3.92;;;2.80;;
19149;SDS011;9707;49.158;8.632;2024-02-16T03:00:31;6.97;;;3.20;;
19149;SDS011;9707;49.158;8.632;2024-02-16T03:02:57;7.18;;;3.38;;
19149;SDS011;9707;49.158;8.632;2024-02-16T03:05:22;6.35;;;2.83;;
19149;SDS011;9707;49.158;8.632;2024-02-16T03:07:47;5.05;;;3.00;;
19149;SDS011;9707;49.158;8.632;2024-02-16T03:10:12;6.18;;;3.10;;
19149;SDS011;9707;49.158;8.632;2024-02-16T03:12:39;3.88;;;3.00;;
19149;SDS011;9707;49.158;8.632;2024-02-16T03:15:05;4.20;;;3.15;;
19149;SDS011;9707;49.158;8.632;2024-02-16T03:17:30;3.67;;;2.60;;
19149;SDS011;9707;49.158;8.632;2024-02-16T03:19:56;5.15;;;2.92;;
19149;SDS011;9707;49.158;8.632;2024-02-16T03:22:21;4.60;;;3.35;;
19149;SDS011;9707;49.158;8.632;2024-02-16T03:24:46;5.18;;;2.92;;
19149;SDS011;9707;49.158;8.632;2024-02-16T03:27:12;3.50;;;2.20;;
19149;SDS011;9707;49.158;8.632;2024-02-16T03:29:38;5.90;;;2.92;;
19149;SDS011;9707;49.158;8.632;2024-02-16T03:32:03;5.22;;;2.70;;
19149;SDS011;9707;49.158;8.632;2024-02-16T03:34:28;7.13;;;2.95;;
19149;SDS011;9707;49.158;8.632;2024-02-16T03:36:55;4.82;;;2.90;;
19149;SDS011;9707;49.158;8.632;2024-02-16T03:39:20;5.25;;;3.10;;
19149;SDS011;9707;49.158;8.632;2024-02-16T03:41:45;4.28;;;2.47;;
19149;SDS011;9707;49.158;8.632;2024-02-16T03:44:14;2.33;;;2.13;;
19149;SDS011;9707;49.158;8.632;2024-02-16T03:46:40;4.63;;;2.40;;
19149;SDS011;9707;49.158;8.632;2024-02-16T03:49:06;4.78;;;3.00;;
19149;SDS011;9707;49.158;8.632;2024-02-16T03:51:31;3.97;;;2.88;;
19149;SDS011;9707;49.158;8.632;2024-02-16T03:53:56;4.63;;;2.67;;
19149;SDS011;9707;49.158;8.632;2024-02-16T03:56:22;6.45;;;2.90;;
19149;SDS011;9707;49.158;8.632;2024-02-16T03:58:47;5.43;;;2.60;;
19149;SDS011;9707;49.158;8.632;2024-02-16T04:01:12;5.60;;;2.80;;
19149;SDS011;9707;49.158;8.632;2024-02-16T04:03:38;5.40;;;2.63;;
19149;SDS011;9707;49.158;8.632;2024-02-16T04:06:03;5.40;;;2.85;;
19149;SDS011;9707;49.158;8.632;2024-02-16T04:08:29;4.82;;;2.70;;
19149;SDS011;9707;49.158;8.632;2024-02-16T04:10:54;4.22;;;2.58;;
19149;SDS011;9707;49.158;8.632;2024-02-16T04:13:20;6.40;;;3.00;;
19149;SDS011;9707;49.158;8.632;2024-02-16T04:15:45;4.50;;;2.72;;
19149;SDS011;9707;49.158;8.632;2024-02-16T04:18:10;5.32;;;3.13;;
19149;SDS011;9707;49.158;8.632;2024-02-16T04:20:36;4.80;;;2.70;;
19149;SDS011;9707;49.158;8.632;2024-02-16T04:23:02;6.07;;;2.90;;
19149;SDS011;9707;49.158;8.632;2024-02-16T04:25:28;5.47;;;2.83;;
19149;SDS011;9707;49.158;8.632;2024-02-16T04:27:53;4.38;;;2.80;;
19149;SDS011;9707;49.158;8.632;2024-02-16T04:30:19;5.63;;;2.72;;
19149;SDS011;9707;49.158;8.632;2024-02-16T04:32:44;3.58;;;2.78;;
19149;SDS011;9707;49.158;8.632;2024-02-16T04:35:10;4.07;;;2.75;;
19149;SDS011;9707;49.158;8.632;2024-02-16T04:37:36;4.85;;;2.55;;
19149;SDS011;9707;49.158;8.632;2024-02-16T04:40:03;5.03;;;2.80;;
19149;SDS011;9707;49.158;8.632;2024-02-16T04:42:30;5.93;;;2.65;;
19149;SDS011;9707;49.158;8.632;2024-02-16T04:44:56;3.42;;;2.33;;
19149;SDS011;9707;49.158;8.632;2024-02-16T04:47:21;4.63;;;3.08;;
19149;SDS011;9707;49.158;8.632;2024-02-16T04:49:46;4.20;;;3.30;;
19149;SDS011;9707;49.158;8.632;2024-02-16T04:52:11;6.63;;;2.70;;
19149;SDS011;9707;49.158;8.632;2024-02-16T04:54:37;6.18;;;3.17;;
19149;SDS011;9707;49.158;8.632;2024-02-16T04:57:05;4.85;;;3.28;;
19149;SDS011;9707;49.158;8.632;2024-02-16T04:59:30;7.15;;;3.00;;
19149;SDS011;9707;49.158;8.632;2024-02-16T05:01:55;2.97;;;2.33;;
19149;SDS011;9707;49.158;8.632;2024-02-16T05:04:21;5.63;;;3.08;;
19149;SDS011;9707;49.158;8.632;2024-02-16T05:06:46;8.85;;;2.92;;
19149;SDS011;9707;49.158;8.632;2024-02-16T05:09:11;4.07;;;2.50;;
19149;SDS011;9707;49.158;8.632;2024-02-16T05:11:37;3.88;;;1.92;;
19149;SDS011;9707;49.158;8.632;2024-02-16T05:14:02;4.00;;;2.72;;
19149;SDS011;9707;49.158;8.632;2024-02-16T05:16:27;6.30;;;2.90;;
19149;SDS011;9707;49.158;8.632;2024-02-16T05:18:54;6.45;;;2.42;;
19149;SDS011;9707;49.158;8.632;2024-02-16T05:21:21;5.68;;;2.53;;
19149;SDS011;9707;49.158;8.632;2024-02-16T05:23:47;5.43;;;2.20;;
19149;SDS011;9707;49.158;8.632;2024-02-16T05:26:12;3.40;;;2.20;;
19149;SDS011;9707;49.158;8.632;2024-02-16T05:28:37;5.05;;;2.53;;
19149;SDS011;9707;49.158;8.632;2024-02-16T05:31:06;5.07;;;2.30;;
19149;SDS011;9707;49.158;8.632;2024-02-16T05:33:39;3.10;;;2.30;;
19149;SDS011;9707;49.158;8.632;2024-02-16T05:36:05;4.57;;;2.63;;
19149;SDS011;9707;49.158;8.632;2024-02-16T05:38:31;6.35;;;3.15;;
19149;SDS011;9707;49.158;8.632;2024-02-16T05:40:59;6.95;;;3.30;;
19149;SDS011;9707;49.158;8.632;2024-02-16T05:43:25;4.13;;;2.58;;
19149;SDS011;9707;49.158;8.632;2024-02-16T05:45:50;4.35;;;2.60;;
19149;SDS011;9707;49.158;8.632;2024-02-16T05:48:15;4.38;;;3.00;;
19149;SDS011;9707;49.158;8.632;2024-02-16T05:50:40;6.13;;;3.10;;
19149;SDS011;9707;49.158;8.632;2024-02-16T05:53:06;4.20;;;2.88;;
19149;SDS011;9707;49.158;8.632;2024-02-16T05:55:32;2.97;;;1.95;;
19149;SDS011;9707;49.158;8.632;2024-02-16T05:57:57;3.70;;;2.10;;
19149;SDS011;9707;49.158;8.632;2024-02-16T06:00:22;3.42;;;2.30;;
19149;SDS011;9707;49.158;8.632;2024-02-16T06:02:47;4.18;;;2.22;;
19149;SDS011;9707;49.158;8.632;2024-02-16T06:05:13;4.65;;;2.80;;
19149;SDS011;9707;49.158;8.632;2024-02-16T06:07:38;2.90;;;1.98;;
19149;SDS011;9707;49.158;8.632;2024-02-16T06:10:04;3.58;;;2.20;;
19149;SDS011;9707;49.158;8.632;2024-02-16T06:12:32;2.00;;;1.83;;
19149;SDS011;9707;49.158;8.632;2024-02-16T06:14:58;4.75;;;3.13;;
19149;SDS011;9707;49.158;8.632;2024-02-16T06:17:24;3.78;;;2.10;;
19149;SDS011;9707;49.158;8.632;2024-02-16T06:19:49;4.28;;;2.60;;
19149;SDS011;9707;49.158;8.632;2024-02-16T06:22:15;4.03;;;2.40;;
19149;SDS011;9707;49.158;8.632;2024-02-16T06:24:40;2.80;;;2.00;;
19149;SDS011;9707;49.158;8.632;2024-02-16T06:27:06;10.77;;;2.92;;
19149;SDS011;9707;49.158;8.632;2024-02-16T06:29:34;5.40;;;2.65;;
19149;SDS011;9707;49.158;8.632;2024-02-16T06:31:59;4.05;;;2.28;;
19149;SDS011;9707;49.158;8.632;2024-02-16T06:34:27;4.72;;;2.75;;
19149;SDS011;9707;49.158;8.632;2024-02-16T06:36:52;3.95;;;2.83;;
19149;SDS011;9707;49.158;8.632;2024-02-16T06:39:17;6.28;;;3.20;;
19149;SDS011;9707;49.158;8.632;2024-02-16T06:41:43;6.43;;;3.03;;
19149;SDS011;9707;49.158;8.632;2024-02-16T06:44:10;6.45;;;3.35;;
19149;SDS011;9707;49.158;8.632;2024-02-16T06:46:36;5.43;;;2.50;;
19149;SDS011;9707;49.158;8.632;2024-02-16T06:49:01;3.15;;;2.28;;
19149;SDS011;9707;49.158;8.632;2024-02-16T06:51:27;9.38;;;3.53;;
19149;SDS011;9707;49.158;8.632;2024-02-16T06:53:53;4.97;;;3.20;;
19149;SDS011;9707;49.158;8.632;2024-02-16T06:56:19;5.95;;;3.15;;
19149;SDS011;9707;49.158;8.632;2024-02-16T06:58:44;5.57;;;3.33;;
19149;SDS011;9707;49.158;8.632;2024-02-16T07:01:10;2.78;;;2.40;;
19149;SDS011;9707;49.158;8.632;2024-02-16T07:03:36;4.22;;;3.30;;
19149;SDS011;9707;49.158;8.632;2024-02-16T07:06:04;4.80;;;2.45;;
19149;SDS011;9707;49.158;8.632;2024-02-16T07:08:32;4.38;;;2.95;;
19149;SDS011;9707;49.158;8.632;2024-02-16T07:10:58;6.47;;;3.22;;
19149;SDS011;9707;49.158;8.632;2024-02-16T07:13:23;8.20;;;3.38;;
19149;SDS011;9707;49.158;8.632;2024-02-16T07:15:49;3.97;;;2.50;;
19149;SDS011;9707;49.158;8.632;2024-02-16T07:18:15;4.45;;;2.92;;
19149;SDS011;9707;49.158;8.632;2024-02-16T07:20:40;4.78;;;3.40;;
19149;SDS011;9707;49.158;8.632;2024-02-16T07:23:05;6.57;;;3.40;;
19149;SDS011;9707;49.158;8.632;2024-02-16T07:25:31;4.75;;;3.00;;
19149;SDS011;9707;49.158;8.632;2024-02-16T07:27:56;7.50;;;3.33;;
19149;SDS011;9707;49.158;8.632;2024-02-16T07:30:22;5.68;;;2.67;;
19149;SDS011;9707;49.158;8.632;2024-02-16T07:32:50;6.43;;;3.85;;
19149;SDS011;9707;49.158;8.632;2024-02-16T07:35:17;5.85;;;2.70;;
19149;SDS011;9707;49.158;8.632;2024-02-16T07:37:42;6.30;;;3.15;;
19149;SDS011;9707;49.158;8.632;2024-02-16T07:40:08;5.18;;;3.10;;
19149;SDS011;9707;49.158;8.632;2024-02-16T07:42:34;5.35;;;3.03;;
19149;SDS011;9707;49.158;8.632;2024-02-16T07:45:03;6.40;;;3.03;;
19149;SDS011;9707;49.158;8.632;2024-02-16T07:47:29;5.18;;;2.90;;
19149;SDS011;9707;49.158;8.632;2024-02-16T07:49:56;3.15;;;2.42;;
19149;SDS011;9707;49.158;8.632;2024-02-16T07:52:21;5.53;;;3.40;;
19149;SDS011;9707;49.158;8.632;2024-02-16T07:54:47;6.63;;;3.30;;
19149;SDS011;9707;49.158;8.632;2024-02-16T07:57:12;6.47;;;3.22;;
19149;SDS011;9707;49.158;8.632;2024-02-16T07:59:38;3.97;;;3.10;;
19149;SDS011;9707;49.158;8.632;2024-02-16T08:02:05;5.05;;;2.80;;
19149;SDS011;9707;49.158;8.632;2024-02-16T08:04:32;3.85;;;2.53;;
19149;SDS011;9707;49.158;8.632;2024-02-16T08:06:57;4.97;;;2.92;;
19149;SDS011;9707;49.158;8.632;2024-02-16T08:09:22;5.93;;;3.72;;
19149;SDS011;9707;49.158;8.632;2024-02-16T08:11:47;4.60;;;2.83;;
19149;SDS011;9707;49.158;8.632;2024-02-16T08:14:13;6.53;;;3.20;;
19149;SDS011;9707;49.158;8.632;2024-02-16T08:16:38;7.60;;;3.35;;
19149;SDS011;9707;49.158;8.632;2024-02-16T08:19:03;6.03;;;3.20;;
19149;SDS011;9707;49.158;8.632;2024-02-16T08:21:28;3.70;;;2.88;;
19149;SDS011;9707;49.158;8.632;2024-02-16T08:23:54;2.90;;;2.08;;
19149;SDS011;9707;49.158;8.632;2024-02-16T08:26:19;5.55;;;3.05;;
19149;SDS011;9707;49.158;8.632;2024-02-16T08:28:44;8.30;;;3.42;;
19149;SDS011;9707;49.158;8.632;2024-02-16T08:31:14;5.13;;;2.80;;
19149;SDS011;9707;49.158;8.632;2024-02-16T08:33:40;2.75;;;2.00;;
19149;SDS011;9707;49.158;8.632;2024-02-16T08:36:06;3.35;;;2.53;;
19149;SDS011;9707;49.158;8.632;2024-02-16T08:38:32;4.90;;;2.30;;
19149;SDS011;9707;49.158;8.632;2024-02-16T08:40:57;5.07;;;3.13;;
19149;SDS011;9707;49.158;8.632;2024-02-16T08:43:24;6.60;;;3.10;;
19149;SDS011;9707;49.158;8.632;2024-02-16T08:45:49;9.30;;;3.28;;
19149;SDS011;9707;49.158;8.632;2024-02-16T08:48:14;4.20;;;2.60;;
19149;SDS011;9707;49.158;8.632;2024-02-16T08:50:39;6.05;;;3.97;;
19149;SDS011;9707;49.158;8.632;2024-02-16T08:53:05;7.47;;;4.10;;
19149;SDS011;9707;49.158;8.632;2024-02-16T08:55:30;5.43;;;3.40;;
19149;SDS011;9707;49.158;8.632;2024-02-16T08:57:56;7.47;;;4.00;;
19149;SDS011;9707;49.158;8.632;2024-02-16T09:00:22;9.55;;;4.53;;
19149;SDS011;9707;49.158;8.632;2024-02-16T09:02:50;6.70;;;3.50;;
19149;SDS011;9707;49.158;8.632;2024-02-16T09:05:15;6.32;;;4.20;;
19149;SDS011;9707;49.158;8.632;2024-02-16T09:07:41;7.20;;;4.13;;
19149;SDS011;9707;49.158;8.632;2024-02-16T09:10:06;5.45;;;3.65;;
19149;SDS011;9707;49.158;8.632;2024-02-16T09:12:32;5.57;;;4.32;;
19149;SDS011;9707;49.158;8.632;2024-02-16T09:14:58;7.10;;;4.53;;
19149;SDS011;9707;49.158;8.632;2024-02-16T09:17:23;7.10;;;4.20;;
19149;SDS011;9707;49.158;8.632;2024-02-16T09:19:48;7.35;;;4.15;;
19149;SDS011;9707;49.158;8.632;2024-02-16T09:22:13;7.18;;;4.20;;
19149;SDS011;9707;49.158;8.632;2024-02-16T09:24:39;7.90;;;4.45;;
19149;SDS011;9707;49.158;8.632;2024-02-16T09:27:05;9.43;;;4.40;;
19149;SDS011;9707;49.158;8.632;2024-02-16T09:29:31;6.50;;;4.32;;
19149;SDS011;9707;49.158;8.632;2024-02-16T09:31:58;7.40;;;5.63;;
19149;SDS011;9707;49.158;8.632;2024-02-16T09:34:23;11.25;;;4.55;;
19149;SDS011;9707;49.158;8.632;2024-02-16T09:36:48;7.35;;;5.30;;
19149;SDS011;9707;49.158;8.632;2024-02-16T09:39:13;8.50;;;5.22;;
19149;SDS011;9707;49.158;8.632;2024-02-16T09:41:41;6.97;;;3.78;;
19149;SDS011;9707;49.158;8.632;2024-02-16T09:44:07;8.35;;;4.50;;
19149;SDS011;9707;49.158;8.632;2024-02-16T09:46:32;5.13;;;3.97;;
19149;SDS011;9707;49.158;8.632;2024-02-16T09:49:00;7.07;;;4.35;;
19149;SDS011;9707;49.158;8.632;2024-02-16T09:51:26;7.63;;;4.47;;
19149;SDS011;9707;49.158;8.632;2024-02-16T09:53:52;8.25;;;4.80;;
19149;SDS011;9707;49.158;8.632;2024-02-16T09:56:18;6.60;;;4.63;;
19149;SDS011;9707;49.158;8.632;2024-02-16T09:58:43;8.88;;;3.95;;
19149;SDS011;9707;49.158;8.632;2024-02-16T10:01:16;6.85;;;3.50;;
19149;SDS011;9707;49.158;8.632;2024-02-16T10:03:44;6.63;;;4.03;;
19149;SDS011;9707;49.158;8.632;2024-02-16T10:06:10;6.97;;;3.78;;
19149;SDS011;9707;49.158;8.632;2024-02-16T10:11:18;6.32;;;4.38;;
19149;SDS011;9707;49.158;8.632;2024-02-16T10:13:57;7.07;;;4.28;;
19149;SDS011;9707;49.158;8.632;2024-02-16T10:16:27;9.38;;;3.65;;
19149;SDS011;9707;49.158;8.632;2024-02-16T10:18:54;6.25;;;3.50;;
19149;SDS011;9707;49.158;8.632;2024-02-16T10:21:32;7.13;;;3.58;;
19149;SDS011;9707;49.158;8.632;2024-02-16T10:24:05;5.78;;;2.75;;
19149;SDS011;9707;49.158;8.632;2024-02-16T10:26:35;6.35;;;3.10;;
19149;SDS011;9707;49.158;8.632;2024-02-16T10:29:02;5.40;;;2.30;;
19149;SDS011;9707;49.158;8.632;2024-02-16T10:31:29;7.63;;;2.42;;
19149;SDS011;9707;49.158;8.632;2024-02-16T10:33:59;4.43;;;2.17;;
19149;SDS011;9707;49.158;8.632;2024-02-16T10:36:34;6.32;;;2.53;;
19149;SDS011;9707;49.158;8.632;2024-02-16T10:39:01;4.95;;;2.40;;
19149;SDS011;9707;49.158;8.632;2024-02-16T10:41:34;4.63;;;2.65;;
19149;SDS011;9707;49.158;8.632;2024-02-16T10:44:03;10.13;;;2.63;;
19149;SDS011;9707;49.158;8.632;2024-02-16T10:46:29;4.78;;;2.40;;
19149;SDS011;9707;49.158;8.632;2024-02-16T10:48:54;7.05;;;2.25;;
19149;SDS011;9707;49.158;8.632;2024-02-16T10:51:21;5.05;;;2.08;;
19149;SDS011;9707;49.158;8.632;2024-02-16T10:53:50;7.18;;;2.63;;
19149;SDS011;9707;49.158;8.632;2024-02-16T10:56:16;5.53;;;2.65;;
19149;SDS011;9707;49.158;8.632;2024-02-16T10:58:52;7.78;;;3.20;;
19149;SDS011;9707;49.158;8.632;2024-02-16T11:01:18;3.72;;;2.10;;
19149;SDS011;9707;49.158;8.632;2024-02-16T11:03:43;4.47;;;2.50;;
19149;SDS011;9707;49.158;8.632;2024-02-16T11:06:14;4.35;;;2.33;;
19149;SDS011;9707;49.158;8.632;2024-02-16T11:08:42;4.25;;;2.35;;
19149;SDS011;9707;49.158;8.632;2024-02-16T11:11:08;4.43;;;2.05;;
19149;SDS011;9707;49.158;8.632;2024-02-16T11:13:36;6.97;;;2.55;;
19149;SDS011;9707;49.158;8.632;2024-02-16T11:16:03;3.80;;;1.95;;
19149;SDS011;9707;49.158;8.632;2024-02-16T11:18:32;3.92;;;1.73;;
19149;SDS011;9707;49.158;8.632;2024-02-16T11:21:02;4.55;;;1.90;;
19149;SDS011;9707;49.158;8.632;2024-02-16T11:23:29;5.35;;;2.20;;
19149;SDS011;9707;49.158;8.632;2024-02-16T11:28:32;4.07;;;1.83;;
19149;SDS011;9707;49.158;8.632;2024-02-16T11:30:59;6.32;;;1.88;;
19149;SDS011;9707;49.158;8.632;2024-02-16T11:33:25;3.53;;;1.98;;
19149;SDS011;9707;49.158;8.632;2024-02-16T11:35:55;3.15;;;1.80;;
19149;SDS011;9707;49.158;8.632;2024-02-16T11:38:25;4.00;;;1.48;;
19149;SDS011;9707;49.158;8.632;2024-02-16T11:40:58;3.60;;;1.50;;
19149;SDS011;9707;49.158;8.632;2024-02-16T11:43:25;5.40;;;1.35;;
19149;SDS011;9707;49.158;8.632;2024-02-16T11:45:51;3.55;;;1.58;;
19149;SDS011;9707;49.158;8.632;2024-02-16T11:48:23;3.63;;;1.63;;
19149;SDS011;9707;49.158;8.632;2024-02-16T11:50:59;4.07;;;2.10;;
19149;SDS011;9707;49.158;8.632;2024-02-16T11:53:26;6.43;;;2.03;;
19149;SDS011;9707;49.158;8.632;2024-02-16T11:55:51;6.13;;;2.22;;
19149;SDS011;9707;49.158;8.632;2024-02-16T11:58:16;4.22;;;1.90;;
19149;SDS011;9707;49.158;8.632;2024-02-16T12:00:44;3.83;;;1.92;;
19149;SDS011;9707;49.158;8.632;2024-02-16T12:03:10;4.53;;;2.10;;
19149;SDS011;9707;49.158;8.632;2024-02-16T12:05:35;4.63;;;1.90;;
19149;SDS011;9707;49.158;8.632;2024-02-16T12:08:01;4.53;;;2.10;;
19149;SDS011;9707;49.158;8.632;2024-02-16T12:10:26;3.88;;;1.85;;
19149;SDS011;9707;49.158;8.632;2024-02-16T12:12:52;5.30;;;2.30;;
19149;SDS011;9707;49.158;8.632;2024-02-16T12:15:17;4.45;;;1.95;;
19149;SDS011;9707;49.158;8.632;2024-02-16T12:17:44;4.13;;;2.13;;
19149;SDS011;9707;49.158;8.632;2024-02-16T12:20:11;5.60;;;2.22;;
19149;SDS011;9707;49.158;8.632;2024-02-16T12:22:39;6.35;;;2.25;;
19149;SDS011;9707;49.158;8.632;2024-02-16T12:25:04;5.47;;;2.10;;
19149;SDS011;9707;49.158;8.632;2024-02-16T12:27:30;4.40;;;1.95;;
19149;SDS011;9707;49.158;8.632;2024-02-16T12:29:55;4.18;;;1.85;;
19149;SDS011;9707;49.158;8.632;2024-02-16T12:32:20;3.58;;;1.73;;
19149;SDS011;9707;49.158;8.632;2024-02-16T12:34:46;3.47;;;1.90;;
19149;SDS011;9707;49.158;8.632;2024-02-16T12:37:11;5.10;;;1.85;;
19149;SDS011;9707;49.158;8.632;2024-02-16T12:39:37;6.00;;;2.10;;
19149;SDS011;9707;49.158;8.632;2024-02-16T12:42:04;3.17;;;2.08;;
19149;SDS011;9707;49.158;8.632;2024-02-16T12:44:30;4.20;;;1.77;;
19149;SDS011;9707;49.158;8.632;2024-02-16T12:46:58;4.22;;;1.70;;
19149;SDS011;9707;49.158;8.632;2024-02-16T12:49:23;3.92;;;1.60;;
19149;SDS011;9707;49.158;8.632;2024-02-16T12:51:49;4.72;;;1.55;;
19149;SDS011;9707;49.158;8.632;2024-02-16T12:54:15;5.20;;;1.85;;
19149;SDS011;9707;49.158;8.632;2024-02-16T12:56:43;3.80;;;1.50;;
19149;SDS011;9707;49.158;8.632;2024-02-16T12:59:10;7.18;;;1.60;;
19149;SDS011;9707;49.158;8.632;2024-02-16T13:01:35;6.85;;;1.80;;
19149;SDS011;9707;49.158;8.632;2024-02-16T13:04:00;3.60;;;1.40;;
19149;SDS011;9707;49.158;8.632;2024-02-16T13:06:26;4.50;;;1.95;;
19149;SDS011;9707;49.158;8.632;2024-02-16T13:08:51;4.35;;;1.95;;
19149;SDS011;9707;49.158;8.632;2024-02-16T13:11:17;3.15;;;1.70;;
19149;SDS011;9707;49.158;8.632;2024-02-16T13:13:42;5.50;;;1.88;;
19149;SDS011;9707;49.158;8.632;2024-02-16T13:16:07;4.95;;;1.77;;
19149;SDS011;9707;49.158;8.632;2024-02-16T13:18:33;5.75;;;2.05;;
19149;SDS011;9707;49.158;8.632;2024-02-16T13:20:59;2.42;;;1.60;;
19149;SDS011;9707;49.158;8.632;2024-02-16T13:23:24;4.35;;;1.75;;
19149;SDS011;9707;49.158;8.632;2024-02-16T13:25:49;5.70;;;1.80;;
19149;SDS011;9707;49.158;8.632;2024-02-16T13:28:14;4.45;;;1.60;;
19149;SDS011;9707;49.158;8.632;2024-02-16T13:30:41;7.72;;;2.17;;
19149;SDS011;9707;49.158;8.632;2024-02-16T13:33:07;6.75;;;1.95;;
19149;SDS011;9707;49.158;8.632;2024-02-16T13:35:34;3.40;;;1.50;;
19149;SDS011;9707;49.158;8.632;2024-02-16T13:38:00;4.90;;;1.58;;
19149;SDS011;9707;49.158;8.632;2024-02-16T13:40:26;3.80;;;1.48;;
19149;SDS011;9707;49.158;8.632;2024-02-16T13:42:51;4.80;;;1.92;;
19149;SDS011;9707;49.158;8.632;2024-02-16T13:45:16;3.45;;;1.50;;
19149;SDS011;9707;49.158;8.632;2024-02-16T13:47:42;1.92;;;1.27;;
19149;SDS011;9707;49.158;8.632;2024-02-16T13:50:08;2.90;;;1.38;;
19149;SDS011;9707;49.158;8.632;2024-02-16T13:52:34;2.65;;;1.05;;
19149;SDS011;9707;49.158;8.632;2024-02-16T13:55:00;4.63;;;1.58;;
19149;SDS011;9707;49.158;8.632;2024-02-16T13:57:25;4.82;;;1.90;;
19149;SDS011;9707;49.158;8.632;2024-02-16T13:59:50;4.47;;;1.58;;
19149;SDS011;9707;49.158;8.632;2024-02-16T14:02:16;4.57;;;1.60;;
19149;SDS011;9707;49.158;8.632;2024-02-16T14:04:42;3.67;;;1.67;;
19149;SDS011;9707;49.158;8.632;2024-02-16T14:07:07;5.45;;;1.40;;
19149;SDS011;9707;49.158;8.632;2024-02-16T14:09:32;5.72;;;1.60;;
19149;SDS011;9707;49.158;8.632;2024-02-16T14:11:58;4.28;;;1.35;;
19149;SDS011;9707;49.158;8.632;2024-02-16T14:14:27;4.25;;;1.75;;
19149;SDS011;9707;49.158;8.632;2024-02-16T14:16:52;4.07;;;1.63;;
19149;SDS011;9707;49.158;8.632;2024-02-16T14:19:19;4.63;;;1.60;;
19149;SDS011;9707;49.158;8.632;2024-02-16T14:21:44;4.95;;;1.30;;
19149;SDS011;9707;49.158;8.632;2024-02-16T14:24:10;2.92;;;1.38;;
19149;SDS011;9707;49.158;8.632;2024-02-16T14:26:36;5.45;;;1.50;;
19149;SDS011;9707;49.158;8.632;2024-02-16T14:29:02;5.20;;;1.58;;
19149;SDS011;9707;49.158;8.632;2024-02-16T14:31:28;2.97;;;1.30;;
19149;SDS011;9707;49.158;8.632;2024-02-16T14:33:53;3.85;;;1.30;;
19149;SDS011;9707;49.158;8.632;2024-02-16T14:36:21;3.45;;;1.25;;
19149;SDS011;9707;49.158;8.632;2024-02-16T14:38:46;4.38;;;1.50;;
19149;SDS011;9707;49.158;8.632;2024-02-16T14:41:12;4.53;;;1.38;;
19149;SDS011;9707;49.158;8.632;2024-02-16T14:43:38;5.53;;;1.60;;
19149;SDS011;9707;49.158;8.632;2024-02-16T14:46:03;2.75;;;1.30;;
19149;SDS011;9707;49.158;8.632;2024-02-16T14:48:29;3.75;;;1.30;;
19149;SDS011;9707;49.158;8.632;2024-02-16T14:50:54;4.00;;;1.17;;
19149;SDS011;9707;49.158;8.632;2024-02-16T14:53:20;4.13;;;1.30;;
19149;SDS011;9707;49.158;8.632;2024-02-16T14:55:46;4.18;;;1.45;;
19149;SDS011;9707;49.158;8.632;2024-02-16T14:58:11;3.15;;;1.25;;